createdAt,value
2023-01-05T00:01:47.107Z,7.34
2023-01-05T00:04:14.436Z,7.34
2023-01-05T00:06:41.386Z,7.34
2023-01-05T00:09:12.508Z,7.35
2023-01-05T00:11:57.242Z,7.35
2023-01-05T00:15:01.644Z,7.34
2023-01-05T00:17:46.911Z,7.33
2023-01-05T00:20:37.961Z,7.34
2023-01-05T00:23:04.892Z,7.32
2023-01-05T00:25:36.504Z,7.31
2023-01-05T00:28:03.140Z,7.31
2023-01-05T00:30:33.220Z,7.31
2023-01-05T00:32:59.831Z,7.31
2023-01-05T00:35:26.447Z,7.33
2023-01-05T00:37:52.966Z,7.36
2023-01-05T00:40:21.463Z,7.38
2023-01-05T00:42:50.196Z,7.39
2023-01-05T00:45:18.834Z,7.42
2023-01-05T00:47:45.545Z,7.43
2023-01-05T00:50:17.709Z,7.45
2023-01-05T00:52:46.989Z,7.46
2023-01-05T00:55:14.449Z,7.47
2023-01-05T00:57:43.201Z,7.50
2023-01-05T01:00:16.151Z,7.54
2023-01-05T01:02:43.012Z,7.53
2023-01-05T01:05:10.040Z,7.56
2023-01-05T01:07:36.562Z,7.57
2023-01-05T01:10:03.738Z,7.58
2023-01-05T01:12:38.475Z,7.57
2023-01-05T01:15:06.214Z,7.60
2023-01-05T01:17:33.560Z,7.66
2023-01-05T01:20:00.647Z,7.70
2023-01-05T01:22:27.302Z,7.68
2023-01-05T01:24:53.986Z,7.67
2023-01-05T01:27:22.322Z,7.66
2023-01-05T01:29:48.887Z,7.67
2023-01-05T01:32:15.386Z,7.69
2023-01-05T01:34:47.106Z,7.70
2023-01-05T01:37:13.605Z,7.72
2023-01-05T01:39:40.133Z,7.72
2023-01-05T01:42:07.185Z,7.71
2023-01-05T01:45:01.718Z,7.73
2023-01-05T01:47:41.470Z,7.73
2023-01-05T01:50:19.275Z,7.74
2023-01-05T01:52:52.236Z,7.73
2023-01-05T01:55:21.516Z,7.72
2023-01-05T01:57:49.744Z,7.72
2023-01-05T02:00:19.635Z,7.73
2023-01-05T02:02:48.666Z,7.73
2023-01-05T02:05:18.105Z,7.74
2023-01-05T02:07:49.117Z,7.74
2023-01-05T02:10:21.940Z,7.74
2023-01-05T02:13:16.474Z,7.78
2023-01-05T02:16:03.170Z,7.77
2023-01-05T02:18:59.140Z,7.79
2023-01-05T02:21:42.868Z,7.80
2023-01-05T02:24:24.745Z,7.82
2023-01-05T02:27:15.437Z,7.82
2023-01-05T02:30:13.480Z,7.83
2023-01-05T02:32:54.949Z,7.84
2023-01-05T02:35:35.300Z,7.84
2023-01-05T02:38:15.620Z,7.82
2023-01-05T02:40:55.570Z,7.83
2023-01-05T02:43:22.313Z,7.83
2023-01-05T02:45:49.580Z,7.84
2023-01-05T02:48:16.504Z,7.82
2023-01-05T02:50:44.837Z,7.82
2023-01-05T02:53:25.460Z,7.79
2023-01-05T02:56:00.873Z,7.81
2023-01-05T02:58:33.387Z,7.79
2023-01-05T03:01:11.998Z,7.79
2023-01-05T03:03:43.119Z,7.78
2023-01-05T03:06:16.684Z,7.74
2023-01-05T03:08:56.299Z,7.74
2023-01-05T03:11:46.202Z,7.74
2023-01-05T03:14:20.651Z,7.72
2023-01-05T03:16:50.035Z,7.70
2023-01-05T03:19:41.480Z,7.77
2023-01-05T03:22:48.849Z,7.75
2023-01-05T03:25:37.549Z,7.77
2023-01-05T03:28:27.303Z,7.79
2023-01-05T03:31:30.387Z,7.82
2023-01-05T03:34:45.297Z,7.84
2023-01-05T03:37:20.313Z,7.88
2023-01-05T03:39:47.639Z,7.87
2023-01-05T03:42:16.049Z,7.86
2023-01-05T03:44:47.413Z,7.85
2023-01-05T03:47:14.665Z,7.83
2023-01-05T03:49:41.784Z,7.81
2023-01-05T03:52:08.467Z,7.81
2023-01-05T03:54:34.942Z,7.81
2023-01-05T03:57:01.463Z,7.82
2023-01-05T03:59:29.685Z,7.84
2023-01-05T04:01:58.340Z,7.88
2023-01-05T04:04:24.892Z,7.91
2023-01-05T04:06:51.620Z,8.00
2023-01-05T04:09:18.114Z,8.05
2023-01-05T04:11:49.233Z,8.07
2023-01-05T04:14:16.230Z,8.08
2023-01-05T04:16:42.752Z,8.11
2023-01-05T04:19:10.494Z,8.16
2023-01-05T04:21:45.271Z,8.21
2023-01-05T04:24:12.805Z,8.26
2023-01-05T04:26:39.536Z,8.32
2023-01-05T04:29:06.413Z,8.38
2023-01-05T04:31:32.919Z,8.47
2023-01-05T04:33:59.656Z,8.49
2023-01-05T04:36:26.391Z,8.50
2023-01-05T04:38:52.898Z,8.62
2023-01-05T04:41:19.465Z,8.67
2023-01-05T04:43:53.545Z,8.75
2023-01-05T04:46:20.084Z,8.78
2023-01-05T04:48:46.828Z,8.79
2023-01-05T04:51:15.054Z,8.84
2023-01-05T04:53:41.868Z,8.90
2023-01-05T04:56:08.348Z,8.98
2023-01-05T04:58:36.596Z,9.02
2023-01-05T05:01:03.459Z,9.08
2023-01-05T05:03:33.204Z,9.10
2023-01-05T05:06:04.849Z,9.09
2023-01-05T05:08:31.347Z,9.16
2023-01-05T05:10:57.911Z,9.16
2023-01-05T05:13:26.109Z,9.19
2023-01-05T05:15:54.915Z,9.18
2023-01-05T05:18:22.231Z,9.23
2023-01-05T05:20:51.818Z,9.25
2023-01-05T05:23:19.036Z,9.26
2023-01-05T05:25:45.915Z,9.28
2023-01-05T05:28:12.626Z,9.29
2023-01-05T05:30:39.093Z,9.31
2023-01-05T05:33:06.153Z,9.31
2023-01-05T05:35:34.656Z,9.31
2023-01-05T05:38:01.445Z,9.30
2023-01-05T05:40:29.220Z,9.30
2023-01-05T05:42:55.825Z,9.42
2023-01-05T05:45:22.311Z,9.49
2023-01-05T05:47:49.024Z,9.51
2023-01-05T05:50:17.414Z,9.52
2023-01-05T05:52:43.979Z,9.60
2023-01-05T05:55:10.578Z,9.62
2023-01-05T05:57:37.216Z,9.62
2023-01-05T06:00:04.970Z,9.66
2023-01-05T06:02:31.555Z,9.62
2023-01-05T06:05:10.167Z,9.60
2023-01-05T06:07:36.646Z,9.57
2023-01-05T06:10:03.188Z,9.62
2023-01-05T06:12:29.993Z,9.68
2023-01-05T06:14:56.844Z,9.69
2023-01-05T06:17:23.327Z,9.67
2023-01-05T06:19:49.991Z,9.61
2023-01-05T06:22:16.494Z,9.56
2023-01-05T06:24:42.974Z,9.52
2023-01-05T06:27:18.578Z,9.55
2023-01-05T06:29:45.053Z,9.59
2023-01-05T06:32:11.536Z,9.60
2023-01-05T06:34:39.811Z,9.62
2023-01-05T06:37:06.524Z,9.61
2023-01-05T06:39:35.037Z,9.61
2023-01-05T06:42:01.629Z,9.63
2023-01-05T06:44:28.222Z,9.62
2023-01-05T06:46:54.843Z,9.61
2023-01-05T06:49:23.068Z,9.58
2023-01-05T06:51:49.955Z,9.58
2023-01-05T06:54:16.548Z,9.56
2023-01-05T06:56:46.097Z,9.54
2023-01-05T06:59:12.900Z,9.55
2023-01-05T07:01:39.789Z,9.56
2023-01-05T07:04:06.808Z,9.55
2023-01-05T07:06:36.072Z,9.58
2023-01-05T07:09:03.308Z,9.64
2023-01-05T07:11:30.091Z,9.64
2023-01-05T07:13:58.813Z,9.72
2023-01-05T07:16:25.454Z,9.79
2023-01-05T07:18:53.768Z,9.78
2023-01-05T07:21:20.269Z,9.76
2023-01-05T07:23:47.000Z,9.79
2023-01-05T07:26:13.785Z,9.81
2023-01-05T07:28:40.377Z,9.80
2023-01-05T07:31:09.787Z,9.80
2023-01-05T07:33:40.427Z,9.79
2023-01-05T07:36:07.711Z,9.79
2023-01-05T07:38:34.463Z,9.78
2023-01-05T07:41:04.315Z,9.77
2023-01-05T07:43:30.944Z,9.78
2023-01-05T07:46:03.802Z,9.85
2023-01-05T07:48:33.554Z,9.91
2023-01-05T07:51:04.581Z,9.95
2023-01-05T07:53:36.787Z,9.93
2023-01-05T07:56:15.061Z,9.92
2023-01-05T07:58:42.519Z,9.88
2023-01-05T08:01:12.836Z,9.89
2023-01-05T08:03:40.088Z,9.91
2023-01-05T08:06:11.932Z,9.92
2023-01-05T08:08:38.742Z,9.94
2023-01-05T08:11:06.764Z,9.97
2023-01-05T08:13:54.422Z,10.04
2023-01-05T08:16:23.551Z,10.14
2023-01-05T08:18:50.108Z,10.20
2023-01-05T08:21:16.726Z,10.21
2023-01-05T08:23:45.205Z,10.29
2023-01-05T08:26:14.324Z,10.31
2023-01-05T08:28:41.322Z,10.31
2023-01-05T08:31:15.582Z,10.36
2023-01-05T08:33:42.835Z,10.37
2023-01-05T08:36:14.214Z,10.42
2023-01-05T08:38:48.345Z,10.42
2023-01-05T08:41:23.856Z,10.43
2023-01-05T08:44:00.761Z,10.48
2023-01-05T08:46:30.074Z,10.49
2023-01-05T08:48:58.583Z,10.51
2023-01-05T08:51:25.709Z,10.54
2023-01-05T08:53:54.168Z,10.60
2023-01-05T08:56:21.735Z,10.64
2023-01-05T08:58:50.408Z,10.65
2023-01-05T09:01:18.703Z,10.66
2023-01-05T09:03:45.655Z,10.66
2023-01-05T09:06:21.293Z,10.64
2023-01-05T09:08:48.665Z,10.68
2023-01-05T09:11:30.083Z,10.66
2023-01-05T09:13:58.788Z,10.68
2023-01-05T09:19:17.662Z,10.75
2023-01-05T09:21:46.660Z,10.76
2023-01-05T09:24:15.409Z,10.78
2023-01-05T09:26:43.086Z,10.80
2023-01-05T09:29:10.419Z,10.81
2023-01-05T09:31:37.017Z,10.82
2023-01-05T09:34:03.832Z,10.89
2023-01-05T09:36:30.525Z,11.03
2023-01-05T09:38:57.242Z,11.11
2023-01-05T09:41:30.540Z,11.17
2023-01-05T09:44:02.547Z,11.34
2023-01-05T09:46:40.426Z,11.35
2023-01-05T09:49:13.414Z,11.40
2023-01-05T09:51:48.689Z,11.28
2023-01-05T09:54:17.638Z,11.22
2023-01-05T09:59:39.338Z,11.13
2023-01-05T10:02:32.307Z,11.14
2023-01-05T10:05:02.529Z,11.23
2023-01-05T10:07:47.772Z,11.34
2023-01-05T10:10:36.484Z,11.34
2023-01-05T10:13:07.779Z,11.29
2023-01-05T10:15:43.913Z,11.26
2023-01-05T10:18:21.063Z,11.29
2023-01-05T10:21:03.411Z,11.24
2023-01-05T10:23:42.343Z,11.24
2023-01-05T10:26:22.718Z,11.17
2023-01-05T10:29:04.376Z,11.12
2023-01-05T10:31:57.709Z,11.07
2023-01-05T10:34:55.562Z,10.94
2023-01-05T10:37:34.634Z,10.81
2023-01-05T10:40:32.748Z,10.73
2023-01-05T10:43:11.423Z,10.70
2023-01-05T10:45:57.313Z,10.66
2023-01-05T10:48:31.232Z,10.65
2023-01-05T10:50:58.149Z,10.69
2023-01-05T10:53:26.785Z,10.64
2023-01-05T10:59:13.471Z,10.52
2023-01-05T11:01:45.882Z,10.54
2023-01-05T11:04:33.983Z,10.59
2023-01-05T11:07:06.087Z,10.68
2023-01-05T11:09:46.147Z,10.71
2023-01-05T11:12:21.329Z,10.72
2023-01-05T11:14:59.148Z,10.70
2023-01-05T11:17:28.428Z,10.68
2023-01-05T11:19:57.180Z,10.70
2023-01-05T11:22:31.349Z,10.68
2023-01-05T11:25:23.806Z,10.59
2023-01-05T11:28:13.283Z,10.56
2023-01-05T11:30:47.117Z,10.56
2023-01-05T11:33:25.943Z,10.60
2023-01-05T11:35:52.932Z,10.61
2023-01-05T11:38:23.739Z,10.59
2023-01-05T11:40:52.547Z,10.57
2023-01-05T11:43:21.631Z,10.55
2023-01-05T11:45:57.815Z,10.57
2023-01-05T11:48:28.965Z,10.54
2023-01-05T11:50:57.141Z,10.53
2023-01-05T11:53:40.595Z,10.55
2023-01-05T11:56:28.387Z,10.64
2023-01-05T11:59:00.293Z,10.79
2023-01-05T12:02:17.344Z,11.06
2023-01-05T12:05:24.248Z,11.32
2023-01-05T12:07:56.512Z,11.29
2023-01-05T12:10:50.560Z,11.24
2023-01-05T12:13:23.135Z,11.35
2023-01-05T12:16:12.165Z,11.50
2023-01-05T12:19:01.555Z,11.84
2023-01-05T12:21:38.818Z,12.08
2023-01-05T12:24:17.409Z,12.09
2023-01-05T12:26:54.444Z,11.97
2023-01-05T12:31:13.100Z,11.75
2023-01-05T12:33:44.503Z,11.60
2023-01-05T12:36:08.629Z,11.63
2023-01-05T12:39:07.473Z,11.61
2023-01-05T12:42:11.463Z,11.62
2023-01-05T12:45:07.135Z,11.59
2023-01-05T12:47:52.385Z,11.49
2023-01-05T12:53:31.719Z,11.40
2023-01-05T12:56:12.951Z,11.42
2023-01-05T12:58:52.115Z,11.47
2023-01-05T13:01:30.459Z,11.55
2023-01-05T13:04:05.419Z,11.68
2023-01-05T13:06:39.489Z,11.79
2023-01-05T13:09:32.612Z,11.90
2023-01-05T13:12:06.926Z,11.89
2023-01-05T13:14:55.308Z,11.94
2023-01-05T13:17:30.881Z,11.97
2023-01-05T13:20:07.368Z,11.96
2023-01-05T13:22:39.359Z,11.86
2023-01-05T13:25:23.639Z,11.80
2023-01-05T13:27:50.221Z,11.70
2023-01-05T13:30:33.104Z,11.66
2023-01-05T13:33:38.051Z,11.65
2023-01-05T13:36:07.376Z,11.72
2023-01-05T13:39:12.789Z,11.81
2023-01-05T13:42:04.799Z,11.90
2023-01-05T13:44:31.231Z,11.95
2023-01-05T13:47:03.484Z,11.98
2023-01-05T13:49:36.172Z,12.02
2023-01-05T13:52:10.703Z,12.02
2023-01-05T13:55:02.250Z,12.08
2023-01-05T13:57:36.495Z,12.12
2023-01-05T14:00:19.911Z,12.17
2023-01-05T14:03:06.959Z,12.18
2023-01-05T14:05:42.784Z,12.12
2023-01-05T14:08:18.650Z,12.13
2023-01-05T14:11:19.543Z,12.13
2023-01-05T14:13:55.883Z,12.03
2023-01-05T14:16:40.597Z,11.99
2023-01-05T14:19:21.580Z,12.01
2023-01-05T14:21:53.451Z,12.00
2023-01-05T14:27:17.007Z,11.93
2023-01-05T14:32:43.824Z,11.78
2023-01-05T14:35:30.612Z,11.70
2023-01-05T14:38:03.660Z,11.67
2023-01-05T14:40:46.036Z,11.63
2023-01-05T14:43:34.330Z,11.61
2023-01-05T14:46:09.452Z,11.52
2023-01-05T14:48:47.454Z,11.43
2023-01-05T14:51:26.995Z,11.39
2023-01-05T14:53:57.542Z,11.33
2023-01-05T14:56:27.589Z,11.27
2023-01-05T14:59:07.500Z,11.21
2023-01-05T15:04:20.415Z,11.17
2023-01-05T15:06:59.561Z,11.15
2023-01-05T15:09:45.354Z,11.07
2023-01-05T15:12:38.099Z,11.00
2023-01-05T15:15:29.563Z,10.97
2023-01-05T15:18:07.570Z,10.93
2023-01-05T15:20:53.252Z,10.88
2023-01-05T15:23:33.389Z,10.86
2023-01-05T15:26:26.765Z,10.81
2023-01-05T15:29:35.110Z,10.76
2023-01-05T15:32:23.463Z,10.73
2023-01-05T15:34:56.461Z,10.72
2023-01-05T15:37:38.194Z,10.67
2023-01-05T15:40:27.278Z,10.64
2023-01-05T15:43:03.210Z,10.60
2023-01-05T15:45:36.100Z,10.55
2023-01-05T15:48:09.565Z,10.49
2023-01-05T15:50:48.444Z,10.44
2023-01-05T15:53:29.681Z,10.40
2023-01-05T15:55:57.493Z,10.36
2023-01-05T15:58:26.133Z,10.31
2023-01-05T16:01:13.703Z,10.26
2023-01-05T16:03:43.605Z,10.23
2023-01-05T16:06:31.421Z,10.16
2023-01-05T16:09:07.539Z,10.09
2023-01-05T16:11:40.754Z,10.04
2023-01-05T16:14:28.728Z,9.99
2023-01-05T16:17:02.301Z,9.92
2023-01-05T16:19:43.676Z,9.87
2023-01-05T16:22:17.897Z,9.84
2023-01-05T16:24:55.633Z,9.80
2023-01-05T16:27:22.688Z,9.77
2023-01-05T16:29:49.597Z,9.74
2023-01-05T16:32:39.611Z,9.71
2023-01-05T16:35:43.500Z,9.67
2023-01-05T16:38:09.953Z,9.64
2023-01-05T16:40:40.659Z,9.61
2023-01-05T16:43:38.396Z,9.59
2023-01-05T16:46:28.198Z,9.57
2023-01-05T16:49:27.297Z,9.56
2023-01-05T16:51:55.995Z,9.55
2023-01-05T16:54:27.924Z,9.55
2023-01-05T16:57:04.509Z,9.53
2023-01-05T16:59:33.793Z,9.51
2023-01-05T17:02:00.761Z,9.50
2023-01-05T17:04:27.344Z,9.48
2023-01-05T17:06:54.283Z,9.48
2023-01-05T17:09:26.957Z,9.45
2023-01-05T17:11:54.069Z,9.44
2023-01-05T17:14:22.633Z,9.40
2023-01-05T17:16:49.211Z,9.41
2023-01-05T17:19:23.165Z,9.42
2023-01-05T17:21:56.582Z,9.45
2023-01-05T17:24:31.207Z,9.43
2023-01-05T17:26:58.014Z,9.40
2023-01-05T17:29:27.737Z,9.36
2023-01-05T17:31:56.734Z,9.31
2023-01-05T17:34:23.794Z,9.29
2023-01-05T17:36:54.928Z,9.28
2023-01-05T17:39:24.509Z,9.23
2023-01-05T17:41:53.383Z,9.18
2023-01-05T17:44:19.880Z,9.14
2023-01-05T17:46:50.479Z,9.08
2023-01-05T17:49:20.867Z,9.01
2023-01-05T17:51:47.676Z,8.97
2023-01-05T17:54:14.396Z,8.87
2023-01-05T17:56:40.899Z,8.78
2023-01-05T17:59:07.638Z,8.69
2023-01-05T18:01:36.214Z,8.62
2023-01-05T18:04:02.864Z,8.55
2023-01-05T18:06:29.710Z,8.48
2023-01-05T18:08:56.452Z,8.41
2023-01-05T18:11:22.940Z,8.35
2023-01-05T18:13:49.649Z,8.28
2023-01-05T18:16:18.540Z,8.21
2023-01-05T18:18:45.199Z,8.12
2023-01-05T18:21:11.944Z,8.06
2023-01-05T18:23:39.129Z,7.97
2023-01-05T18:26:09.051Z,7.90
2023-01-05T18:28:36.746Z,7.84
2023-01-05T18:31:18.165Z,7.80
2023-01-05T18:33:44.772Z,7.74
2023-01-05T18:36:13.912Z,7.72
2023-01-05T18:38:41.439Z,7.71
2023-01-05T18:41:08.494Z,7.69
2023-01-05T18:43:35.683Z,7.67
2023-01-05T18:46:13.086Z,7.65
2023-01-05T18:48:40.093Z,7.62
2023-01-05T18:51:09.241Z,7.59
2023-01-05T18:53:39.034Z,7.58
2023-01-05T18:56:07.789Z,7.56
2023-01-05T18:58:34.628Z,7.53
2023-01-05T19:01:07.189Z,7.50
2023-01-05T19:03:34.277Z,7.48
2023-01-05T19:06:17.760Z,7.46
2023-01-05T19:08:52.038Z,7.50
2023-01-05T19:11:27.240Z,7.51
2023-01-05T19:14:00.133Z,7.55
2023-01-05T19:16:31.712Z,7.59
2023-01-05T19:19:05.102Z,7.62
2023-01-05T19:21:33.355Z,7.64
2023-01-05T19:24:01.349Z,7.66
2023-01-05T19:26:30.641Z,7.65
2023-01-05T19:28:59.583Z,7.67
2023-01-05T19:31:28.002Z,7.66
2023-01-05T19:33:58.901Z,7.67
2023-01-05T19:36:34.142Z,7.68
2023-01-05T19:39:02.741Z,7.68
2023-01-05T19:41:30.337Z,7.68
2023-01-05T19:44:01.461Z,7.68
2023-01-05T19:46:28.994Z,7.69
2023-01-05T19:48:56.584Z,7.69
2023-01-05T19:51:27.910Z,7.67
2023-01-05T19:53:57.432Z,7.68
2023-01-05T19:56:27.036Z,7.66
2023-01-05T19:58:58.818Z,7.64
2023-01-05T20:01:27.053Z,7.65
2023-01-05T20:03:55.161Z,7.64
2023-01-05T20:06:24.973Z,7.67
2023-01-05T20:08:53.775Z,7.67
2023-01-05T20:11:45.335Z,7.65
2023-01-05T20:14:14.404Z,7.64
2023-01-05T20:16:49.331Z,7.63
2023-01-05T20:19:16.872Z,7.58
2023-01-05T20:21:43.352Z,7.55
2023-01-05T20:24:18.960Z,7.50
2023-01-05T20:26:46.650Z,7.45
2023-01-05T20:29:15.265Z,7.40
2023-01-05T20:31:47.236Z,7.38
2023-01-05T20:34:17.733Z,7.34
2023-01-05T20:36:45.114Z,7.30
2023-01-05T20:39:14.576Z,7.29
2023-01-05T20:41:43.016Z,7.25
2023-01-05T20:44:11.795Z,7.21
2023-01-05T20:46:47.742Z,7.19
2023-01-05T20:49:15.309Z,7.15
2023-01-05T20:51:42.781Z,7.13
2023-01-05T20:54:10.892Z,7.10
2023-01-05T20:56:39.993Z,7.09
2023-01-05T20:59:12.269Z,7.04
2023-01-05T21:01:38.979Z,7.02
2023-01-05T21:04:06.356Z,6.99
2023-01-05T21:06:35.414Z,6.97
2023-01-05T21:09:02.524Z,6.95
2023-01-05T21:11:29.679Z,6.89
2023-01-05T21:13:59.456Z,6.83
2023-01-05T21:16:29.419Z,6.72
2023-01-05T21:18:56.918Z,6.66
2023-01-05T21:21:27.572Z,6.63
2023-01-05T21:23:54.984Z,6.57
2023-01-05T21:26:22.547Z,6.52
2023-01-05T21:28:51.212Z,6.49
2023-01-05T21:31:21.557Z,6.41
2023-01-05T21:33:48.448Z,6.36
2023-01-05T21:36:18.965Z,6.31
2023-01-05T21:39:01.967Z,6.24
2023-01-05T21:41:51.852Z,6.23
2023-01-05T21:44:20.026Z,6.14
2023-01-05T21:46:47.955Z,6.08
2023-01-05T21:49:19.125Z,6.02
2023-01-05T21:52:04.845Z,6.00
2023-01-05T21:54:49.943Z,5.93
2023-01-05T21:57:16.985Z,5.87
2023-01-05T21:59:43.617Z,5.79
2023-01-05T22:02:16.554Z,5.76
2023-01-05T22:04:43.868Z,5.72
2023-01-05T22:07:10.744Z,5.71
2023-01-05T22:09:42.285Z,5.69
2023-01-05T22:12:09.116Z,5.67
2023-01-05T22:14:37.361Z,5.62
2023-01-05T22:17:07.453Z,5.54
2023-01-05T22:19:34.736Z,5.44
2023-01-05T22:22:01.515Z,5.37
2023-01-05T22:24:29.718Z,5.30
2023-01-05T22:26:56.702Z,5.31
2023-01-05T22:29:23.496Z,5.28
2023-01-05T22:32:03.117Z,5.22
2023-01-05T22:34:30.722Z,5.14
2023-01-05T22:36:57.389Z,5.11
2023-01-05T22:39:24.292Z,5.10
2023-01-05T22:41:51.159Z,5.09
2023-01-05T22:44:17.722Z,5.06
2023-01-05T22:46:46.419Z,5.03
2023-01-05T22:49:14.267Z,5.06
2023-01-05T22:51:44.794Z,5.03
2023-01-05T22:54:13.745Z,4.99
2023-01-05T22:56:40.408Z,4.92
2023-01-05T22:59:07.457Z,4.87
2023-01-05T23:01:39.272Z,4.86
2023-01-05T23:04:07.163Z,4.81
2023-01-05T23:06:34.500Z,4.76
2023-01-05T23:09:03.437Z,4.69
2023-01-05T23:11:32.342Z,4.65
2023-01-05T23:14:00.461Z,4.58
2023-01-05T23:16:30.493Z,4.54
2023-01-05T23:18:57.337Z,4.48
2023-01-05T23:21:25.644Z,4.45
2023-01-05T23:23:54.004Z,4.45
2023-01-05T23:26:21.099Z,4.45
2023-01-05T23:28:48.037Z,4.45
2023-01-05T23:31:18.081Z,4.42
2023-01-05T23:33:45.454Z,4.39
2023-01-05T23:36:14.039Z,4.32
2023-01-05T23:38:42.269Z,4.28
2023-01-05T23:41:11.512Z,4.23
2023-01-05T23:43:39.435Z,4.19
2023-01-05T23:46:16.705Z,4.19
2023-01-05T23:48:43.818Z,4.15
2023-01-05T23:51:13.643Z,4.14
2023-01-05T23:53:43.820Z,4.11
2023-01-05T23:56:19.594Z,4.10
2023-01-05T23:58:48.197Z,4.02
